Terminal Aerodrome Forecast
Issued by NWS

Home | Current Version | Previous Version | Graphics & Text | Print | Product List | Glossary Off
Versions: 1 2 3 4 5 6 7 8 9 10 11 12 13 14 15 16 17 18

000
FTUS43 KDDC 241120
TAFHYS
TAF
KHYS 241120Z 2412/2512 11009KT P6SM FEW250
     FM241800 10012KT P6SM VCSH FEW250
     FM242100 36016G24KT P6SM BKN080
     FM250000 35023G31KT P6SM BKN015
      AMD NOT SKED=

USA.gov is the U.S. government's official web portal to all federal, state and local government web resources and services.